Terminal Aerodrome Forecast
Issued by NWS

Home | Current Version | Previous Version | Text Only | Print | Product List | Glossary On
Versions: 1 2 3 4 5 6 7 8 9 10 11 12 13 14 15 16 17 18 19 20 21
000
FTUS46 KLOX 282355
TAFSBA
TAF
KSBA 282355Z 2900/2924 24009KT P6SM SKC
     FM290200 VRB03KT P6SM SKC WS020/33025KT
     FM290700 11005KT P6SM SKC
     FM291300 12005KT 4SM BR BKN004
     FM291600 16005KT P6SM SKC
     FM292100 24008KT P6SM SKC=

USA.gov is the U.S. government's official web portal to all federal, state and local government web resources and services.